Time;durP1;ratioP1;P1;durP2;ratioP2;P2;SDS_P1;SDS_P2;PMS_P1;PMS_P2;Temp;Humidity;BMP_temperature;BMP_pressure;BME280_temperature;BME280_humidity;BME280_pressure;Samples;Min_cycle;Max_cycle;Signal;HPM_P1;HPM_P2
2023/04/26 00:01:21;;;;;;;3.50;1.40;;;10.90;99.90;;;;;;1881029;75;21261;-82
2023/04/26 00:04:13;;;;;;;2.60;1.22;;;10.90;99.90;;;;;;1892821;75;21103;-82
2023/04/26 00:07:06;;;;;;;1.95;1.30;;;10.90;99.90;;;;;;1901862;75;21102;-81
2023/04/26 00:09:57;;;;;;;2.58;1.22;;;10.90;99.90;;;;;;1896110;75;21090;-82
2023/04/26 00:15:33;;;;;;;2.92;1.25;;;10.80;99.90;;;;;;1936375;72;22185;-83
2023/04/26 00:18:24;;;;;;;3.58;1.50;;;10.70;99.90;;;;;;1906293;75;21550;-82
2023/04/26 00:21:15;;;;;;;3.65;1.20;;;10.60;99.90;;;;;;1903309;75;21051;-82
2023/04/26 00:24:08;;;;;;;3.17;1.32;;;10.60;99.90;;;;;;1905756;74;21164;-82
2023/04/26 00:27:00;;;;;;;1.60;1.20;;;10.50;99.90;;;;;;1900922;75;21101;-82
2023/04/26 00:29:51;;;;;;;2.15;0.93;;;10.50;99.90;;;;;;1903589;75;21123;-82
2023/04/26 00:32:43;;;;;;;2.77;1.22;;;10.50;99.90;;;;;;1885343;75;21658;-82
2023/04/26 00:35:34;;;;;;;1.80;1.30;;;10.50;99.90;;;;;;1899540;75;21561;-82
2023/04/26 00:38:26;;;;;;;4.03;1.40;;;10.40;99.90;;;;;;1894971;75;21039;-82
2023/04/26 00:41:17;;;;;;;1.95;1.30;;;10.30;99.90;;;;;;1906541;75;21150;-82
2023/04/26 00:44:08;;;;;;;3.70;1.32;;;10.30;99.90;;;;;;1895602;75;21098;-82
2023/04/26 00:47:00;;;;;;;2.00;1.12;;;10.30;99.90;;;;;;1899071;75;21108;-83
2023/04/26 00:49:52;;;;;;;3.12;1.30;;;10.30;99.90;;;;;;1884300;76;21320;-83
2023/04/26 00:52:45;;;;;;;2.83;1.60;;;10.30;99.90;;;;;;1882717;75;21106;-82
2023/04/26 00:55:37;;;;;;;3.10;1.42;;;10.40;99.90;;;;;;1895113;75;21132;-82
2023/04/26 00:58:28;;;;;;;2.85;1.67;;;10.40;99.90;;;;;;1887300;75;21109;-82
2023/04/26 01:01:21;;;;;;;2.67;1.47;;;10.30;99.90;;;;;;1894449;75;21165;-82
2023/04/26 01:04:13;;;;;;;5.25;1.52;;;10.30;99.90;;;;;;1906065;75;21110;-83
2023/04/26 01:07:05;;;;;;;2.60;1.50;;;10.30;99.90;;;;;;1906145;75;21165;-83
2023/04/26 01:09:57;;;;;;;2.67;1.52;;;10.30;99.90;;;;;;1903829;75;21091;-83
2023/04/26 01:12:51;;;;;;;3.72;1.47;;;10.30;99.90;;;;;;1899184;75;21110;-82
2023/04/26 01:15:45;;;;;;;2.20;1.40;;;10.30;99.90;;;;;;1904927;74;21183;-82
2023/04/26 01:18:36;;;;;;;2.75;1.67;;;10.30;99.90;;;;;;1911769;74;21202;-82
2023/04/26 01:24:11;;;;;;;3.17;1.65;;;10.30;99.90;;;;;;1943515;72;22206;-82
2023/04/26 01:27:03;;;;;;;3.98;1.82;;;10.20;99.90;;;;;;1904092;75;21095;-82
2023/04/26 01:29:54;;;;;;;3.15;1.37;;;10.20;99.90;;;;;;1884330;76;21597;-82
2023/04/26 01:32:48;;;;;;;2.62;1.50;;;10.20;99.90;;;;;;1895637;75;21630;-82
2023/04/26 01:35:40;;;;;;;1.72;1.35;;;10.10;99.90;;;;;;1900641;75;21116;-82
2023/04/26 01:38:32;;;;;;;4.12;1.57;;;10.10;99.90;;;;;;1895329;75;21214;-82
2023/04/26 01:41:24;;;;;;;2.33;1.80;;;10.10;99.90;;;;;;1895079;75;21217;-82
2023/04/26 01:46:53;;;;;;;3.20;1.40;;;10.00;99.90;;;;;;1971682;72;22354;-81
2023/04/26 01:49:47;;;;;;;3.30;1.32;;;10.00;99.90;;;;;;1927047;73;21043;-83
2023/04/26 01:52:38;;;;;;;2.35;1.20;;;10.00;99.90;;;;;;1935557;73;21153;-82
2023/04/26 01:55:30;;;;;;;3.70;1.32;;;10.00;99.90;;;;;;1917170;75;21094;-82
2023/04/26 01:58:21;;;;;;;2.30;1.40;;;10.00;99.90;;;;;;1917091;75;21055;-82
2023/04/26 02:01:14;;;;;;;2.12;1.22;;;10.00;99.90;;;;;;1916701;75;21118;-82
2023/04/26 02:04:07;;;;;;;4.15;1.50;;;9.90;99.90;;;;;;1876874;76;21171;-81
2023/04/26 02:06:58;;;;;;;4.50;1.50;;;9.80;99.90;;;;;;1929796;73;21129;-81
2023/04/26 02:09:50;;;;;;;2.70;1.32;;;9.80;99.90;;;;;;1919945;73;21150;-81
2023/04/26 02:12:41;;;;;;;1.85;1.45;;;9.80;99.90;;;;;;1917105;75;21111;-81
2023/04/26 02:15:33;;;;;;;3.42;1.60;;;9.80;99.90;;;;;;1916380;75;21159;-81
2023/04/26 02:18:24;;;;;;;3.22;1.70;;;9.80;99.90;;;;;;1916616;75;21143;-81
2023/04/26 02:21:17;;;;;;;2.50;1.42;;;9.80;99.90;;;;;;1916594;75;21193;-81
2023/04/26 02:24:11;;;;;;;3.83;1.70;;;9.80;99.90;;;;;;1916683;75;21110;-81
2023/04/26 02:27:03;;;;;;;2.90;1.60;;;9.70;99.90;;;;;;1925790;73;21098;-81
2023/04/26 02:29:57;;;;;;;3.15;1.95;;;9.70;99.90;;;;;;1923089;73;21157;-81
2023/04/26 02:32:48;;;;;;;3.33;1.52;;;9.70;99.90;;;;;;1916421;75;21098;-81
2023/04/26 02:35:40;;;;;;;3.02;1.70;;;9.70;99.90;;;;;;1916367;75;21102;-81
2023/04/26 02:38:34;;;;;;;1.90;1.47;;;9.60;99.90;;;;;;1915654;75;21122;-82
2023/04/26 02:41:27;;;;;;;2.10;1.42;;;9.60;99.90;;;;;;1917016;75;21094;-82
2023/04/26 02:44:18;;;;;;;3.12;1.60;;;9.60;99.90;;;;;;1917265;75;21123;-82
2023/04/26 02:47:10;;;;;;;4.72;1.67;;;9.60;99.90;;;;;;1917409;74;21168;-82
2023/04/26 02:50:01;;;;;;;2.42;1.72;;;9.50;99.90;;;;;;1929915;73;21091;-82
2023/04/26 02:52:54;;;;;;;3.20;1.80;;;9.50;99.90;;;;;;1917315;73;21162;-82
2023/04/26 02:55:45;;;;;;;3.70;1.82;;;9.50;99.90;;;;;;1916902;75;21093;-82
2023/04/26 02:58:36;;;;;;;3.27;1.80;;;9.50;99.90;;;;;;1915999;75;21113;-82
2023/04/26 03:01:28;;;;;;;3.40;1.75;;;9.50;99.90;;;;;;1916241;75;21191;-82
2023/04/26 03:04:20;;;;;;;3.05;1.50;;;9.50;99.90;;;;;;1903931;75;21091;-82
2023/04/26 03:07:11;;;;;;;4.20;1.70;;;9.40;99.90;;;;;;1903921;75;21194;-83
2023/04/26 03:10:03;;;;;;;4.03;1.60;;;9.40;99.90;;;;;;1925779;74;21149;-82
2023/04/26 03:12:56;;;;;;;3.52;1.82;;;9.30;99.90;;;;;;1920786;74;21160;-82
2023/04/26 03:15:48;;;;;;;2.83;1.65;;;9.30;99.90;;;;;;1915629;74;21082;-82
2023/04/26 03:18:40;;;;;;;4.67;2.22;;;9.30;99.90;;;;;;1914906;74;21083;-82
2023/04/26 03:21:32;;;;;;;2.33;1.55;;;9.30;99.90;;;;;;1950034;73;21051;-82
2023/04/26 03:24:23;;;;;;;2.72;1.67;;;9.20;99.90;;;;;;1918950;74;21115;-82
2023/04/26 03:27:14;;;;;;;3.95;1.70;;;9.20;99.90;;;;;;1904115;75;21198;-82
2023/04/26 03:30:09;;;;;;;3.20;2.00;;;9.20;99.90;;;;;;1904143;75;21176;-81
2023/04/26 03:33:00;;;;;;;4.03;2.10;;;9.10;99.90;;;;;;1904107;75;21095;-81
2023/04/26 03:35:52;;;;;;;2.67;1.80;;;9.10;99.90;;;;;;1923973;74;21547;-83
2023/04/26 03:38:43;;;;;;;2.02;1.70;;;9.10;99.90;;;;;;1918592;74;21114;-82
2023/04/26 03:41:38;;;;;;;3.12;1.70;;;9.10;99.90;;;;;;1927698;73;22160;-82
2023/04/26 03:44:30;;;;;;;3.52;1.72;;;9.00;99.90;;;;;;1922524;73;21152;-82
2023/04/26 03:47:23;;;;;;;3.67;1.95;;;9.00;99.90;;;;;;1923648;74;21122;-82
2023/04/26 03:50:19;;;;;;;4.92;2.10;;;9.00;99.90;;;;;;1922175;74;21136;-82
2023/04/26 03:53:11;;;;;;;3.70;1.80;;;9.10;99.90;;;;;;1924264;74;21185;-82
2023/04/26 03:56:05;;;;;;;2.70;1.70;;;9.00;99.90;;;;;;1905368;74;21847;-81
2023/04/26 03:58:59;;;;;;;3.40;2.00;;;9.00;99.90;;;;;;1922221;74;21117;-82
2023/04/26 04:01:53;;;;;;;3.58;1.90;;;9.00;99.90;;;;;;1923953;74;21118;-82
2023/04/26 04:04:46;;;;;;;3.40;2.00;;;9.00;99.90;;;;;;1910875;75;21106;-82
2023/04/26 04:07:39;;;;;;;3.98;1.92;;;8.90;99.90;;;;;;1922296;74;21153;-82
2023/04/26 04:10:32;;;;;;;2.50;1.62;;;8.90;99.90;;;;;;1893969;74;21055;-81
2023/04/26 04:13:24;;;;;;;3.27;2.00;;;8.90;99.90;;;;;;1918126;74;21155;-82
2023/04/26 04:16:19;;;;;;;4.35;2.08;;;8.90;99.90;;;;;;1926599;74;21094;-81
2023/04/26 04:19:30;;;;;;;2.85;1.62;;;8.80;99.90;;;;;;1919740;74;21120;-82
2023/04/26 04:22:24;;;;;;;4.42;1.90;;;8.80;99.90;;;;;;1924409;74;21173;-81
2023/04/26 04:25:20;;;;;;;3.30;2.27;;;8.80;99.90;;;;;;1925660;74;21066;-81
2023/04/26 04:28:16;;;;;;;3.10;1.95;;;8.70;99.90;;;;;;1927402;74;21213;-82
2023/04/26 04:31:10;;;;;;;3.70;2.60;;;8.70;99.90;;;;;;1918089;74;21110;-81
2023/04/26 04:34:03;;;;;;;6.72;2.27;;;8.70;99.90;;;;;;1921930;74;21117;-81
2023/04/26 04:36:58;;;;;;;4.72;1.90;;;8.70;99.90;;;;;;1917134;74;21580;-81
2023/04/26 04:39:52;;;;;;;4.53;2.22;;;8.70;99.90;;;;;;1935706;74;21186;-82
2023/04/26 04:42:45;;;;;;;6.28;2.22;;;8.60;99.90;;;;;;1912990;74;21102;-81
2023/04/26 04:45:42;;;;;;;5.05;2.20;;;8.60;99.90;;;;;;1932540;74;21549;-82
2023/04/26 04:48:37;;;;;;;1.90;1.70;;;8.70;99.90;;;;;;1922128;74;21114;-82
2023/04/26 04:51:33;;;;;;;4.87;2.42;;;8.70;99.90;;;;;;1869175;76;21857;-82
2023/04/26 04:54:24;;;;;;;4.15;2.00;;;8.70;99.90;;;;;;1923829;74;21103;-81
2023/04/26 04:57:20;;;;;;;3.42;2.00;;;8.60;99.90;;;;;;1904460;74;21614;-81
2023/04/26 05:00:18;;;;;;;3.92;2.52;;;8.70;99.90;;;;;;1913661;74;21113;-81
2023/04/26 05:03:15;;;;;;;2.75;1.90;;;8.70;99.90;;;;;;1913913;74;21047;-81
2023/04/26 05:06:08;;;;;;;4.83;2.83;;;8.60;99.90;;;;;;1929344;74;21578;-81
2023/04/26 05:09:01;;;;;;;4.60;2.45;;;8.60;99.90;;;;;;1910954;74;21175;-81
2023/04/26 05:11:55;;;;;;;7.72;2.37;;;8.60;99.90;;;;;;1910744;74;21143;-82
2023/04/26 05:14:48;;;;;;;3.72;2.45;;;8.60;99.90;;;;;;1898184;75;21034;-83
2023/04/26 05:17:42;;;;;;;4.22;2.25;;;8.60;99.90;;;;;;1927374;74;21173;-82
2023/04/26 05:20:41;;;;;;;5.33;2.37;;;8.70;99.90;;;;;;1923472;74;21613;-82
2023/04/26 05:23:36;;;;;;;6.15;3.10;;;8.80;99.90;;;;;;1917729;74;21140;-82
2023/04/26 05:26:30;;;;;;;6.20;2.90;;;8.90;99.90;;;;;;1918066;74;21088;-82
2023/04/26 05:29:25;;;;;;;5.10;3.27;;;8.90;99.90;;;;;;1922708;74;21102;-82
2023/04/26 05:32:22;;;;;;;3.58;2.62;;;8.90;99.90;;;;;;1858169;74;21122;-82
2023/04/26 05:35:16;;;;;;;9.45;3.80;;;8.90;99.90;;;;;;1902082;74;21177;-82
2023/04/26 05:38:09;;;;;;;6.65;3.12;;;8.90;99.90;;;;;;1907237;74;21099;-83
2023/04/26 05:41:00;;;;;;;5.15;2.50;;;8.90;99.90;;;;;;1925993;74;21082;-83
2023/04/26 05:43:52;;;;;;;4.90;2.65;;;9.00;99.90;;;;;;1912784;74;21093;-77
2023/04/26 05:46:44;;;;;;;5.60;2.62;;;8.90;99.90;;;;;;1911557;74;21562;-78
2023/04/26 05:49:36;;;;;;;5.35;2.65;;;8.90;99.90;;;;;;1911820;74;21226;-77
2023/04/26 05:52:28;;;;;;;9.28;3.75;;;8.90;99.90;;;;;;1911474;74;21082;-76
2023/04/26 05:55:21;;;;;;;4.03;2.12;;;8.90;99.90;;;;;;1910840;74;21122;-76
2023/04/26 05:58:13;;;;;;;4.20;2.40;;;8.90;99.90;;;;;;1913006;74;21126;-78
2023/04/26 06:01:04;;;;;;;4.35;2.08;;;8.90;99.90;;;;;;1909405;74;21187;-77
2023/04/26 06:03:56;;;;;;;6.08;2.27;;;9.00;99.90;;;;;;1906542;74;21142;-76
2023/04/26 06:06:51;;;;;;;4.10;2.15;;;9.10;99.90;;;;;;1916823;74;21125;-76
2023/04/26 06:09:43;;;;;;;4.05;2.15;;;9.10;99.90;;;;;;1913559;74;21101;-76
2023/04/26 06:12:35;;;;;;;5.87;2.30;;;9.20;99.90;;;;;;1909534;74;21106;-76
2023/04/26 06:15:28;;;;;;;5.47;2.65;;;9.30;99.90;;;;;;1909482;74;21226;-77
2023/04/26 06:18:20;;;;;;;4.65;2.30;;;9.30;99.90;;;;;;1909213;74;21103;-76
2023/04/26 06:21:11;;;;;;;4.15;2.40;;;9.30;99.90;;;;;;1901384;75;21071;-77
2023/04/26 06:24:03;;;;;;;5.20;2.50;;;9.30;99.90;;;;;;1911197;74;21176;-77
2023/04/26 06:26:54;;;;;;;4.90;2.83;;;9.40;99.90;;;;;;1903877;74;21088;-76
2023/04/26 06:29:46;;;;;;;6.83;3.00;;;9.40;99.90;;;;;;1901441;75;21099;-88
2023/04/26 06:32:41;;;;;;;5.83;2.72;;;9.40;99.90;;;;;;1920949;74;21075;-85
2023/04/26 06:35:32;;;;;;;4.55;2.05;;;9.60;99.90;;;;;;1915747;74;21548;-85
2023/04/26 06:38:24;;;;;;;6.50;2.33;;;9.70;99.90;;;;;;1912513;74;21111;-75
2023/04/26 06:41:15;;;;;;;5.10;2.45;;;9.70;99.90;;;;;;1909542;74;21164;-74
2023/04/26 06:44:08;;;;;;;6.35;2.98;;;9.70;99.90;;;;;;1916449;74;21114;-87
2023/04/26 06:47:01;;;;;;;5.35;2.42;;;9.80;99.90;;;;;;1901205;75;21593;-87
2023/04/26 06:49:54;;;;;;;5.62;2.37;;;9.80;99.90;;;;;;1853047;76;21149;-86
2023/04/26 06:52:45;;;;;;;5.15;2.60;;;9.90;99.90;;;;;;1917757;74;21187;-86
2023/04/26 06:55:37;;;;;;;5.08;2.70;;;10.00;99.90;;;;;;1865161;76;21173;-86
2023/04/26 06:58:28;;;;;;;5.35;2.58;;;10.10;99.90;;;;;;1862499;76;21118;-85
2023/04/26 07:01:19;;;;;;;5.90;3.17;;;10.20;99.90;;;;;;1845303;78;21179;-85
2023/04/26 07:04:11;;;;;;;6.25;2.80;;;10.20;99.90;;;;;;1902914;75;21548;-86
2023/04/26 07:07:03;;;;;;;5.20;2.60;;;10.30;99.90;;;;;;1927956;74;21059;-85
2023/04/26 07:09:54;;;;;;;6.10;3.10;;;10.40;99.90;;;;;;1934011;74;21086;-86
2023/04/26 07:12:46;;;;;;;7.62;3.60;;;10.60;99.90;;;;;;1895317;75;21115;-87
2023/04/26 07:15:37;;;;;;;6.70;2.60;;;10.70;99.90;;;;;;1936742;74;21087;-86
2023/04/26 07:18:29;;;;;;;4.15;2.80;;;10.80;99.90;;;;;;1915256;75;21131;-85
2023/04/26 07:21:20;;;;;;;6.35;2.70;;;10.80;99.90;;;;;;1913562;75;21119;-85
2023/04/26 07:24:12;;;;;;;4.70;2.65;;;10.90;99.90;;;;;;1928465;74;21155;-85
2023/04/26 07:27:06;;;;;;;7.35;2.50;;;11.00;99.90;;;;;;1928486;73;21336;-85
2023/04/26 07:29:58;;;;;;;4.30;2.55;;;11.10;99.90;;;;;;1923959;73;21060;-85
2023/04/26 07:32:49;;;;;;;5.50;2.58;;;11.20;99.90;;;;;;1864611;76;21198;-85
2023/04/26 07:35:44;;;;;;;4.75;2.40;;;11.20;99.90;;;;;;1896973;75;21107;-84
2023/04/26 07:38:35;;;;;;;5.08;2.62;;;11.30;99.90;;;;;;1893248;75;21208;-85
2023/04/26 07:41:37;;;;;;;3.70;2.17;;;11.30;99.90;;;;;;1905642;75;21094;-85
2023/04/26 07:44:29;;;;;;;5.95;2.65;;;11.40;99.90;;;;;;1928933;73;21133;-85
2023/04/26 07:47:20;;;;;;;3.72;1.95;;;11.50;99.90;;;;;;1923453;74;21391;-85
2023/04/26 07:50:20;;;;;;;4.45;1.90;;;11.50;99.90;;;;;;1912554;73;21122;-86
2023/04/26 07:53:12;;;;;;;3.77;2.12;;;11.50;99.90;;;;;;1904509;75;21144;-86
2023/04/26 07:56:05;;;;;;;5.87;1.82;;;11.50;99.90;;;;;;1938706;73;21102;-85
2023/04/26 07:58:57;;;;;;;3.30;1.57;;;11.60;99.90;;;;;;1916027;75;21142;-85
2023/04/26 08:01:48;;;;;;;5.25;2.20;;;11.60;99.90;;;;;;1916172;75;21162;-85
2023/04/26 08:04:40;;;;;;;2.70;1.95;;;11.70;99.90;;;;;;1935155;74;21118;-86
2023/04/26 08:07:32;;;;;;;3.45;1.72;;;11.70;99.90;;;;;;1926362;73;21047;-86
2023/04/26 08:10:24;;;;;;;4.10;1.67;;;11.80;99.90;;;;;;1923979;73;21131;-85
2023/04/26 08:13:15;;;;;;;3.52;1.85;;;11.80;99.90;;;;;;1924402;74;21160;-86
2023/04/26 08:16:07;;;;;;;5.37;2.30;;;11.90;99.90;;;;;;1950083;73;21680;-85
2023/04/26 08:19:01;;;;;;;4.95;1.55;;;12.10;99.90;;;;;;1916776;73;21091;-85
2023/04/26 08:21:51;;;;;;;5.45;2.25;;;12.20;99.90;;;;;;1916401;75;21125;-88
2023/04/26 08:24:44;;;;;;;4.30;2.60;;;12.30;99.90;;;;;;1916593;75;21106;-85
2023/04/26 08:27:38;;;;;;;3.50;2.02;;;12.30;99.90;;;;;;1903936;75;21095;-86
2023/04/26 08:30:31;;;;;;;5.33;1.92;;;12.30;99.90;;;;;;1903675;75;21194;-86
2023/04/26 08:33:22;;;;;;;2.92;1.85;;;12.30;99.90;;;;;;1911365;74;21131;-86
2023/04/26 08:36:17;;;;;;;4.35;2.00;;;12.40;99.90;;;;;;1911610;74;21107;-85
2023/04/26 08:39:11;;;;;;;3.50;1.55;;;12.50;99.90;;;;;;1903509;75;21098;-85
2023/04/26 08:44:48;;;;;;;2.83;1.80;;;12.60;99.90;;;;;;1951127;72;22257;-87
2023/04/26 08:47:44;;;;;;;3.72;1.95;;;12.70;99.90;;;;;;1896088;74;21622;-86
2023/04/26 08:50:36;;;;;;;4.95;1.80;;;12.80;99.90;;;;;;1895484;75;21094;-86
2023/04/26 08:53:33;;;;;;;3.08;1.77;;;12.80;99.90;;;;;;1884392;76;21075;-86
2023/04/26 08:56:26;;;;;;;3.75;2.05;;;12.90;99.90;;;;;;1896138;75;21103;-86
2023/04/26 08:59:19;;;;;;;6.00;2.50;;;12.90;99.90;;;;;;1888127;75;21109;-85
2023/04/26 09:02:13;;;;;;;5.12;1.87;;;13.00;99.90;;;;;;1886593;75;21323;-87
2023/04/26 09:05:06;;;;;;;6.55;1.80;;;13.00;99.90;;;;;;1897289;75;21203;-87
2023/04/26 09:08:02;;;;;;;3.92;1.60;;;13.10;99.90;;;;;;1899226;75;21546;-86
2023/04/26 09:10:53;;;;;;;2.20;1.40;;;13.20;99.90;;;;;;1895007;75;21341;-86
2023/04/26 09:13:45;;;;;;;3.25;1.47;;;13.30;99.90;;;;;;1895122;75;21142;-86
2023/04/26 09:16:37;;;;;;;2.45;1.35;;;13.50;99.90;;;;;;1894091;75;21401;-87
2023/04/26 09:19:37;;;;;;;3.27;1.87;;;13.60;99.90;;;;;;1883993;75;21140;-86
2023/04/26 09:22:33;;;;;;;4.53;1.42;;;13.70;99.90;;;;;;1898259;75;21051;-86
2023/04/26 09:25:30;;;;;;;3.45;1.65;;;13.70;99.90;;;;;;1885476;75;21179;-85
2023/04/26 09:28:23;;;;;;;3.05;1.40;;;13.80;99.90;;;;;;1911848;75;21172;-85
2023/04/26 09:31:21;;;;;;;2.30;1.30;;;13.90;99.90;;;;;;1894115;75;21180;-86
2023/04/26 09:34:13;;;;;;;3.87;1.55;;;14.00;99.90;;;;;;1883931;76;21168;-86
2023/04/26 09:37:05;;;;;;;4.37;1.40;;;14.00;99.90;;;;;;1883761;76;21663;-86
2023/04/26 09:39:56;;;;;;;5.10;1.57;;;14.10;99.90;;;;;;1914311;75;21098;-86
2023/04/26 09:42:50;;;;;;;2.98;1.40;;;14.10;99.90;;;;;;1894742;75;21122;-85
2023/04/26 09:45:50;;;;;;;5.08;1.32;;;14.10;99.90;;;;;;1912689;74;21150;-85
2023/04/26 09:48:41;;;;;;;3.87;1.50;;;14.00;99.90;;;;;;1841190;77;21148;-86
2023/04/26 09:51:33;;;;;;;4.03;1.47;;;14.10;99.90;;;;;;1911184;74;21091;-85
2023/04/26 09:54:32;;;;;;;3.02;1.05;;;14.20;99.90;;;;;;1904769;74;21204;-86
2023/04/26 09:57:23;;;;;;;2.30;1.32;;;14.30;99.90;;;;;;1924382;74;21102;-87
2023/04/26 10:00:18;;;;;;;4.45;1.20;;;14.30;99.90;;;;;;1913587;74;21082;-86
2023/04/26 10:03:10;;;;;;;2.25;1.50;;;14.30;99.90;;;;;;1899780;74;21131;-86
2023/04/26 10:06:03;;;;;;;3.25;1.30;;;14.40;99.90;;;;;;1899162;75;21071;-85
2023/04/26 10:08:55;;;;;;;2.22;1.10;;;14.50;99.90;;;;;;1921694;74;21208;-86
2023/04/26 10:11:48;;;;;;;3.37;1.32;;;14.60;99.90;;;;;;1922732;74;21098;-86
2023/04/26 10:14:40;;;;;;;2.45;1.17;;;14.70;99.90;;;;;;1914670;74;21085;-85
2023/04/26 10:17:32;;;;;;;2.45;1.20;;;14.80;99.90;;;;;;1912088;74;21128;-87
2023/04/26 10:20:26;;;;;;;3.52;1.40;;;14.90;99.90;;;;;;1910099;74;21093;-87
2023/04/26 10:23:21;;;;;;;3.35;1.35;;;14.90;99.90;;;;;;1910128;74;21144;-87
2023/04/26 10:26:50;;;;;;;2.30;1.30;;;15.00;99.90;;;;;;1912011;74;21059;-87
2023/04/26 10:33:27;;;;;;;3.05;1.60;;;15.10;99.90;;;;;;1954891;73;22274;-87
2023/04/26 10:36:20;;;;;;;4.17;1.32;;;15.30;99.90;;;;;;1909281;75;21192;-87
2023/04/26 10:39:23;;;;;;;3.20;1.15;;;15.50;99.90;;;;;;1895915;75;21093;-87
2023/04/26 10:42:26;;;;;;;1.72;1.07;;;15.50;99.90;;;;;;1902258;75;21348;-86
2023/04/26 10:45:29;;;;;;;3.55;1.10;;;15.60;99.90;;;;;;1917304;75;21047;-86
2023/04/26 10:48:22;;;;;;;2.55;1.00;;;15.70;99.90;;;;;;1904519;75;21167;-85
2023/04/26 10:51:14;;;;;;;2.05;0.90;;;15.70;99.90;;;;;;1905850;75;21081;-85
2023/04/26 10:54:06;;;;;;;3.35;1.27;;;15.80;99.90;;;;;;1884394;75;21176;-85
2023/04/26 10:56:57;;;;;;;1.45;0.98;;;15.90;99.90;;;;;;1903809;75;21089;-86
2023/04/26 11:00:31;;;;;;;2.15;1.05;;;16.00;99.90;;;;;;1884471;75;21060;-86
2023/04/26 11:03:24;;;;;;;1.95;1.00;;;16.20;99.90;;;;;;1903433;75;21185;-85
2023/04/26 11:06:17;;;;;;;2.72;1.05;;;16.20;99.90;;;;;;1898210;75;21114;-85
2023/04/26 11:09:35;;;;;;;2.42;1.05;;;16.30;99.90;;;;;;1886122;75;21210;-85
2023/04/26 11:12:26;;;;;;;3.25;1.27;;;16.30;99.90;;;;;;1906978;75;21347;-85
2023/04/26 11:15:17;;;;;;;3.05;1.15;;;16.40;99.80;;;;;;1884616;74;21221;-86
2023/04/26 11:18:08;;;;;;;1.98;0.93;;;16.50;99.90;;;;;;1905849;75;21145;-86
2023/04/26 11:21:01;;;;;;;3.00;1.10;;;16.50;99.20;;;;;;1901026;75;21203;-86
2023/04/26 11:23:56;;;;;;;2.05;0.95;;;16.60;99.20;;;;;;1885004;76;21055;-85
2023/04/26 11:29:33;;;;;;;1.30;0.60;;;16.80;95.00;;;;;;1953412;72;22106;-87
2023/04/26 11:32:24;;;;;;;1.05;0.70;;;16.90;93.60;;;;;;1900570;75;21134;-85
2023/04/26 11:35:23;;;;;;;2.90;0.95;;;16.80;93.50;;;;;;1894414;75;21095;-85
2023/04/26 11:38:14;;;;;;;2.20;0.90;;;17.00;93.10;;;;;;1887331;75;21132;-86
2023/04/26 11:41:05;;;;;;;1.00;0.60;;;17.20;92.40;;;;;;1906070;75;21086;-85
2023/04/26 11:43:58;;;;;;;2.05;0.75;;;17.30;90.70;;;;;;1902500;75;21119;-85
2023/04/26 11:46:50;;;;;;;0.90;0.47;;;17.40;91.00;;;;;;1883899;76;21110;-86
2023/04/26 11:49:41;;;;;;;1.25;0.55;;;17.70;85.90;;;;;;1906198;75;21175;-85
2023/04/26 11:52:34;;;;;;;0.88;0.50;;;17.60;73.30;;;;;;1906564;75;21070;-85
2023/04/26 11:55:31;;;;;;;1.98;0.60;;;17.50;74.80;;;;;;1903982;75;21100;-87
2023/04/26 11:58:23;;;;;;;1.05;0.40;;;17.50;70.30;;;;;;1900767;75;21088;-88
2023/04/26 12:01:22;;;;;;;1.00;0.55;;;17.60;72.50;;;;;;1884554;75;21160;-85
2023/04/26 12:04:13;;;;;;;0.82;0.50;;;17.70;65.90;;;;;;1884168;75;21138;-86
2023/04/26 12:07:07;;;;;;;1.45;0.40;;;17.70;59.10;;;;;;1884263;75;21686;-86
2023/04/26 12:10:00;;;;;;;3.72;0.80;;;17.90;58.50;;;;;;1884090;75;21053;-86
2023/04/26 12:12:53;;;;;;;1.20;0.57;;;18.30;60.50;;;;;;1900217;75;21177;-87
2023/04/26 12:15:46;;;;;;;1.87;0.47;;;18.20;58.90;;;;;;1884835;75;21103;-85
2023/04/26 12:18:37;;;;;;;1.60;0.70;;;18.10;56.80;;;;;;1889537;75;21168;-85
2023/04/26 12:21:29;;;;;;;2.15;0.60;;;18.20;59.70;;;;;;1894940;75;21158;-85
2023/04/26 12:24:26;;;;;;;1.15;0.53;;;18.20;60.40;;;;;;1884106;76;21171;-86
2023/04/26 12:27:22;;;;;;;1.52;0.50;;;18.30;59.40;;;;;;1897063;75;21158;-85
2023/04/26 12:30:15;;;;;;;1.87;0.65;;;18.40;57.60;;;;;;1894353;75;21119;-85
2023/04/26 12:33:07;;;;;;;1.15;0.70;;;18.50;59.90;;;;;;1844825;77;21170;-86
2023/04/26 12:36:01;;;;;;;1.30;0.80;;;18.40;65.50;;;;;;1868625;76;21070;-85
2023/04/26 12:38:53;;;;;;;1.50;0.70;;;18.50;69.80;;;;;;1900048;75;21100;-86
2023/04/26 12:41:45;;;;;;;1.85;0.75;;;18.60;71.00;;;;;;1894132;75;21164;-86
2023/04/26 12:44:37;;;;;;;1.20;0.82;;;18.70;70.10;;;;;;1893683;75;21163;-86
2023/04/26 12:50:11;;;;;;;2.05;0.80;;;18.90;67.10;;;;;;1959738;72;22226;-87
2023/04/26 12:53:03;;;;;;;1.98;0.78;;;19.00;64.50;;;;;;1916763;75;21059;-87
2023/04/26 12:55:54;;;;;;;1.02;0.60;;;19.00;64.40;;;;;;1917033;75;21228;-87
2023/04/26 12:58:46;;;;;;;1.20;0.82;;;19.20;63.90;;;;;;1917374;75;21280;-86
2023/04/26 13:01:38;;;;;;;3.20;0.55;;;19.30;61.60;;;;;;1917086;75;21105;-87
2023/04/26 13:04:30;;;;;;;1.62;0.60;;;19.40;61.30;;;;;;1916929;75;21134;-87
2023/04/26 13:07:22;;;;;;;2.47;0.80;;;19.40;60.50;;;;;;1924144;73;21627;-86
2023/04/26 13:10:14;;;;;;;4.25;0.50;;;19.50;58.40;;;;;;1928377;73;21070;-85
2023/04/26 13:13:06;;;;;;;2.67;0.90;;;19.40;55.60;;;;;;1931561;73;21220;-86
2023/04/26 13:16:00;;;;;;;4.80;1.02;;;19.50;53.50;;;;;;1917064;75;21096;-86
2023/04/26 13:18:51;;;;;;;3.40;0.80;;;19.50;52.80;;;;;;1925451;73;21098;-86
2023/04/26 13:21:43;;;;;;;4.42;0.72;;;19.60;51.70;;;;;;1924909;73;21109;-87
2023/04/26 13:24:34;;;;;;;1.30;0.65;;;19.70;51.60;;;;;;1937568;73;21050;-86
2023/04/26 13:27:26;;;;;;;1.55;0.70;;;19.80;51.10;;;;;;1916995;75;21147;-86
2023/04/26 13:32:59;;;;;;;1.70;0.40;;;19.80;51.20;;;;;;1955321;72;22155;-86
2023/04/26 13:38:32;;;;;;;2.60;0.50;;;20.00;49.30;;;;;;1962848;72;22179;-88
2023/04/26 13:41:23;;;;;;;1.50;0.42;;;20.10;47.00;;;;;;1917178;75;21216;-86
2023/04/26 13:44:15;;;;;;;2.92;0.65;;;20.00;45.80;;;;;;1939527;73;21098;-85
2023/04/26 13:47:07;;;;;;;2.37;0.40;;;20.20;43.40;;;;;;1936230;73;21102;-87
2023/04/26 13:49:59;;;;;;;0.90;0.50;;;20.10;41.30;;;;;;1930350;73;21720;-86
2023/04/26 13:52:51;;;;;;;1.45;0.50;;;20.20;40.80;;;;;;1919420;73;21164;-86
2023/04/26 13:55:42;;;;;;;2.08;0.72;;;20.40;41.00;;;;;;1919897;73;21260;-86
2023/04/26 13:58:34;;;;;;;1.40;0.40;;;20.50;42.80;;;;;;1930332;73;21106;-86
2023/04/26 14:01:26;;;;;;;1.02;0.30;;;21.00;43.30;;;;;;1917400;75;21116;-86
2023/04/26 14:04:17;;;;;;;1.67;0.60;;;21.50;43.20;;;;;;1917147;75;21101;-86
2023/04/26 14:07:11;;;;;;;3.00;0.60;;;22.00;41.70;;;;;;1920904;73;21167;-87
2023/04/26 14:10:03;;;;;;;1.60;0.60;;;22.40;43.20;;;;;;1929484;73;21072;-85
2023/04/26 14:12:55;;;;;;;0.82;0.60;;;22.40;40.70;;;;;;1933150;73;21082;-86
2023/04/26 14:15:47;;;;;;;1.32;0.60;;;22.40;42.10;;;;;;1917351;73;21102;-87
2023/04/26 14:18:44;;;;;;;1.55;0.50;;;22.40;42.20;;;;;;1922335;73;21058;-86
2023/04/26 14:21:32;;;;;;;1.60;0.40;;;22.50;40.70;;;;;;1928348;73;21111;-87
2023/04/26 14:24:23;;;;;;;2.05;0.50;;;22.60;39.10;;;;;;1949843;73;21156;-87
2023/04/26 14:27:16;;;;;;;1.05;0.47;;;22.90;40.90;;;;;;1929537;73;21094;-86
2023/04/26 14:30:09;;;;;;;0.80;0.50;;;22.90;46.50;;;;;;1928245;73;21105;-86
2023/04/26 14:33:01;;;;;;;0.65;0.40;;;22.90;49.50;;;;;;1928453;73;21190;-86
2023/04/26 14:35:53;;;;;;;0.60;0.40;;;22.80;51.20;;;;;;1931337;73;21062;-87
2023/04/26 14:38:45;;;;;;;1.98;0.40;;;22.80;52.80;;;;;;1937932;73;21161;-86
2023/04/26 14:44:17;;;;;;;3.47;0.45;;;22.80;51.20;;;;;;1956356;72;22183;-88
2023/04/26 14:47:08;;;;;;;1.22;0.50;;;23.00;50.80;;;;;;1884241;75;21116;-86
2023/04/26 14:50:00;;;;;;;1.15;0.45;;;22.80;50.70;;;;;;1883796;76;21121;-86
2023/04/26 14:52:52;;;;;;;2.40;0.60;;;22.50;50.40;;;;;;1905798;75;21103;-85
2023/04/26 14:55:44;;;;;;;1.05;0.42;;;22.70;50.00;;;;;;1906409;75;21061;-86
2023/04/26 14:58:36;;;;;;;1.07;0.50;;;22.60;50.10;;;;;;1902661;75;21184;-86
2023/04/26 15:01:27;;;;;;;1.57;0.40;;;22.30;50.80;;;;;;1884242;76;21342;-85
2023/04/26 15:04:19;;;;;;;2.10;0.50;;;22.20;50.60;;;;;;1906317;75;21162;-85
2023/04/26 15:07:11;;;;;;;1.52;0.50;;;22.10;51.20;;;;;;1888279;75;21160;-85
2023/04/26 15:10:06;;;;;;;2.37;0.40;;;22.00;47.40;;;;;;1895784;75;21074;-86
2023/04/26 15:15:38;;;;;;;2.02;0.47;;;21.80;51.90;;;;;;1952105;72;22138;-85
2023/04/26 15:18:30;;;;;;;0.60;0.50;;;21.80;53.20;;;;;;1924284;73;21111;-85
2023/04/26 15:21:22;;;;;;;0.98;0.40;;;21.80;54.00;;;;;;1916682;75;21207;-85
2023/04/26 15:24:14;;;;;;;0.78;0.50;;;21.60;54.40;;;;;;1916799;74;21117;-86
2023/04/26 15:27:06;;;;;;;0.42;0.28;;;21.60;54.70;;;;;;1916856;75;21115;-86
2023/04/26 15:29:58;;;;;;;0.55;0.30;;;21.50;53.80;;;;;;1938790;73;21169;-85
2023/04/26 15:32:50;;;;;;;1.40;0.40;;;21.50;54.00;;;;;;1916314;75;21099;-85
2023/04/26 15:35:42;;;;;;;1.75;0.50;;;21.60;54.10;;;;;;1916748;75;21094;-85